sensor_id;sensor_type;location;lat;lon;timestamp;P1;P2;P0
47741;PMS5003;33504;52.066;6.096;2022-09-09T00:00:11;5;4;
47741;PMS5003;33504;52.066;6.096;2022-09-09T00:02:39;3;3;
47741;PMS5003;33504;52.066;6.096;2022-09-09T00:05:14;3;3;
47741;PMS5003;33504;52.066;6.096;2022-09-09T00:07:51;5;4;
47741;PMS5003;33504;52.066;6.096;2022-09-09T00:10:20;2;2;
47741;PMS5003;33504;52.066;6.096;2022-09-09T00:12:55;4;3;
47741;PMS5003;33504;52.066;6.096;2022-09-09T00:15:28;4;4;
47741;PMS5003;33504;52.066;6.096;2022-09-09T00:18:03;4;4;
47741;PMS5003;33504;52.066;6.096;2022-09-09T00:20:41;3;3;
47741;PMS5003;33504;52.066;6.096;2022-09-09T00:23:14;4;4;
47741;PMS5003;33504;52.066;6.096;2022-09-09T00:25:49;5;5;
47741;PMS5003;33504;52.066;6.096;2022-09-09T00:28:25;5;5;
47741;PMS5003;33504;52.066;6.096;2022-09-09T00:30:54;5;5;
47741;PMS5003;33504;52.066;6.096;2022-09-09T00:33:24;6;6;
47741;PMS5003;33504;52.066;6.096;2022-09-09T00:35:53;6;6;
47741;PMS5003;33504;52.066;6.096;2022-09-09T00:38:24;9;9;
47741;PMS5003;33504;52.066;6.096;2022-09-09T00:40:55;6;6;
47741;PMS5003;33504;52.066;6.096;2022-09-09T00:43:28;8;7;
47741;PMS5003;33504;52.066;6.096;2022-09-09T00:46:00;8;8;
47741;PMS5003;33504;52.066;6.096;2022-09-09T00:48:59;10;10;
47741;PMS5003;33504;52.066;6.096;2022-09-09T00:51:34;8;8;
47741;PMS5003;33504;52.066;6.096;2022-09-09T00:54:13;8;8;
47741;PMS5003;33504;52.066;6.096;2022-09-09T00:56:55;8;8;
47741;PMS5003;33504;52.066;6.096;2022-09-09T00:59:35;8;8;
47741;PMS5003;33504;52.066;6.096;2022-09-09T01:02:13;11;11;
47741;PMS5003;33504;52.066;6.096;2022-09-09T01:04:48;10;9;
47741;PMS5003;33504;52.066;6.096;2022-09-09T01:07:15;12;11;
47741;PMS5003;33504;52.066;6.096;2022-09-09T01:09:52;13;12;
47741;PMS5003;33504;52.066;6.096;2022-09-09T01:12:25;13;11;
47741;PMS5003;33504;52.066;6.096;2022-09-09T01:14:58;10;10;
47741;PMS5003;33504;52.066;6.096;2022-09-09T01:17:34;10;10;
47741;PMS5003;33504;52.066;6.096;2022-09-09T01:20:10;9;8;
47741;PMS5003;33504;52.066;6.096;2022-09-09T01:22:43;9;9;
47741;PMS5003;33504;52.066;6.096;2022-09-09T01:25:21;9;8;
47741;PMS5003;33504;52.066;6.096;2022-09-09T01:27:55;9;9;
47741;PMS5003;33504;52.066;6.096;2022-09-09T01:30:25;7;7;
47741;PMS5003;33504;52.066;6.096;2022-09-09T01:32:54;8;8;
47741;PMS5003;33504;52.066;6.096;2022-09-09T01:35:27;6;6;
47741;PMS5003;33504;52.066;6.096;2022-09-09T01:38:02;5;5;
47741;PMS5003;33504;52.066;6.096;2022-09-09T01:40:29;4;4;
47741;PMS5003;33504;52.066;6.096;2022-09-09T01:42:56;3;3;
47741;PMS5003;33504;52.066;6.096;2022-09-09T01:45:23;4;4;
47741;PMS5003;33504;52.066;6.096;2022-09-09T01:47:51;4;4;
47741;PMS5003;33504;52.066;6.096;2022-09-09T01:50:19;4;4;
47741;PMS5003;33504;52.066;6.096;2022-09-09T01:52:48;4;4;
47741;PMS5003;33504;52.066;6.096;2022-09-09T01:55:19;6;6;
47741;PMS5003;33504;52.066;6.096;2022-09-09T01:57:56;4;3;
47741;PMS5003;33504;52.066;6.096;2022-09-09T02:00:39;3;3;
47741;PMS5003;33504;52.066;6.096;2022-09-09T02:03:15;4;4;
47741;PMS5003;33504;52.066;6.096;2022-09-09T02:05:51;2;2;
47741;PMS5003;33504;52.066;6.096;2022-09-09T02:08:29;3;3;
47741;PMS5003;33504;52.066;6.096;2022-09-09T02:11:06;4;3;
47741;PMS5003;33504;52.066;6.096;2022-09-09T02:13:38;4;4;
47741;PMS5003;33504;52.066;6.096;2022-09-09T02:16:07;2;2;
47741;PMS5003;33504;52.066;6.096;2022-09-09T02:18:40;4;4;
47741;PMS5003;33504;52.066;6.096;2022-09-09T02:21:12;5;4;
47741;PMS5003;33504;52.066;6.096;2022-09-09T02:23:40;3;3;
47741;PMS5003;33504;52.066;6.096;2022-09-09T02:26:10;3;3;
47741;PMS5003;33504;52.066;6.096;2022-09-09T02:28:38;4;4;
47741;PMS5003;33504;52.066;6.096;2022-09-09T02:31:07;5;4;
47741;PMS5003;33504;52.066;6.096;2022-09-09T02:33:35;5;4;
47741;PMS5003;33504;52.066;6.096;2022-09-09T02:36:07;3;2;
47741;PMS5003;33504;52.066;6.096;2022-09-09T02:38:37;4;4;
47741;PMS5003;33504;52.066;6.096;2022-09-09T02:41:11;3;3;
47741;PMS5003;33504;52.066;6.096;2022-09-09T02:43:38;3;3;
47741;PMS5003;33504;52.066;6.096;2022-09-09T02:46:07;4;4;
47741;PMS5003;33504;52.066;6.096;2022-09-09T02:48:46;6;5;
47741;PMS5003;33504;52.066;6.096;2022-09-09T02:51:23;6;6;
47741;PMS5003;33504;52.066;6.096;2022-09-09T02:53:59;7;7;
47741;PMS5003;33504;52.066;6.096;2022-09-09T02:56:34;6;6;
47741;PMS5003;33504;52.066;6.096;2022-09-09T02:59:06;10;10;
47741;PMS5003;33504;52.066;6.096;2022-09-09T03:01:33;9;9;
47741;PMS5003;33504;52.066;6.096;2022-09-09T03:04:00;8;8;
47741;PMS5003;33504;52.066;6.096;2022-09-09T03:06:27;9;9;
47741;PMS5003;33504;52.066;6.096;2022-09-09T03:08:54;10;10;
47741;PMS5003;33504;52.066;6.096;2022-09-09T03:11:20;8;8;
47741;PMS5003;33504;52.066;6.096;2022-09-09T03:13:47;9;9;
47741;PMS5003;33504;52.066;6.096;2022-09-09T03:16:14;10;10;
47741;PMS5003;33504;52.066;6.096;2022-09-09T03:18:41;9;9;
47741;PMS5003;33504;52.066;6.096;2022-09-09T03:21:07;12;11;
47741;PMS5003;33504;52.066;6.096;2022-09-09T03:23:34;9;9;
47741;PMS5003;33504;52.066;6.096;2022-09-09T03:26:01;7;7;
47741;PMS5003;33504;52.066;6.096;2022-09-09T03:28:27;11;11;
47741;PMS5003;33504;52.066;6.096;2022-09-09T03:30:57;10;10;
47741;PMS5003;33504;52.066;6.096;2022-09-09T03:33:24;10;9;
47741;PMS5003;33504;52.066;6.096;2022-09-09T03:35:51;10;10;
47741;PMS5003;33504;52.066;6.096;2022-09-09T03:38:18;12;10;
47741;PMS5003;33504;52.066;6.096;2022-09-09T03:40:48;16;15;
47741;PMS5003;33504;52.066;6.096;2022-09-09T03:43:16;11;10;
47741;PMS5003;33504;52.066;6.096;2022-09-09T03:45:44;11;11;
47741;PMS5003;33504;52.066;6.096;2022-09-09T03:48:11;11;11;
47741;PMS5003;33504;52.066;6.096;2022-09-09T03:50:38;13;11;
47741;PMS5003;33504;52.066;6.096;2022-09-09T03:53:05;13;12;
47741;PMS5003;33504;52.066;6.096;2022-09-09T03:55:31;13;12;
47741;PMS5003;33504;52.066;6.096;2022-09-09T03:57:58;10;10;
47741;PMS5003;33504;52.066;6.096;2022-09-09T04:00:25;13;12;
47741;PMS5003;33504;52.066;6.096;2022-09-09T04:02:51;12;12;
47741;PMS5003;33504;52.066;6.096;2022-09-09T04:05:18;13;13;
47741;PMS5003;33504;52.066;6.096;2022-09-09T04:07:46;11;11;
47741;PMS5003;33504;52.066;6.096;2022-09-09T04:10:12;13;12;
47741;PMS5003;33504;52.066;6.096;2022-09-09T04:12:39;10;9;
47741;PMS5003;33504;52.066;6.096;2022-09-09T04:15:06;9;9;
47741;PMS5003;33504;52.066;6.096;2022-09-09T04:17:33;12;11;
47741;PMS5003;33504;52.066;6.096;2022-09-09T04:20:01;9;9;
47741;PMS5003;33504;52.066;6.096;2022-09-09T04:22:28;11;11;
47741;PMS5003;33504;52.066;6.096;2022-09-09T04:24:55;10;10;
47741;PMS5003;33504;52.066;6.096;2022-09-09T04:27:22;11;10;
47741;PMS5003;33504;52.066;6.096;2022-09-09T04:29:49;10;10;
47741;PMS5003;33504;52.066;6.096;2022-09-09T04:32:16;9;9;
47741;PMS5003;33504;52.066;6.096;2022-09-09T04:34:43;9;9;
47741;PMS5003;33504;52.066;6.096;2022-09-09T04:37:10;9;9;
47741;PMS5003;33504;52.066;6.096;2022-09-09T04:39:37;11;11;
47741;PMS5003;33504;52.066;6.096;2022-09-09T04:42:03;11;10;
47741;PMS5003;33504;52.066;6.096;2022-09-09T04:44:31;10;10;
47741;PMS5003;33504;52.066;6.096;2022-09-09T04:46:57;9;9;
47741;PMS5003;33504;52.066;6.096;2022-09-09T04:49:24;11;11;
47741;PMS5003;33504;52.066;6.096;2022-09-09T04:51:51;9;9;
47741;PMS5003;33504;52.066;6.096;2022-09-09T04:54:18;9;9;
47741;PMS5003;33504;52.066;6.096;2022-09-09T04:56:44;11;11;
47741;PMS5003;33504;52.066;6.096;2022-09-09T04:59:11;10;10;
47741;PMS5003;33504;52.066;6.096;2022-09-09T05:01:38;11;10;
47741;PMS5003;33504;52.066;6.096;2022-09-09T05:04:04;12;11;
47741;PMS5003;33504;52.066;6.096;2022-09-09T05:06:31;9;9;
47741;PMS5003;33504;52.066;6.096;2022-09-09T05:08:58;10;9;
47741;PMS5003;33504;52.066;6.096;2022-09-09T05:11:26;11;11;
47741;PMS5003;33504;52.066;6.096;2022-09-09T05:13:54;9;8;
47741;PMS5003;33504;52.066;6.096;2022-09-09T05:16:21;10;9;
47741;PMS5003;33504;52.066;6.096;2022-09-09T05:18:49;10;9;
47741;PMS5003;33504;52.066;6.096;2022-09-09T05:21:16;12;11;
47741;PMS5003;33504;52.066;6.096;2022-09-09T05:23:44;11;10;
47741;PMS5003;33504;52.066;6.096;2022-09-09T05:26:13;10;9;
47741;PMS5003;33504;52.066;6.096;2022-09-09T05:28:42;12;10;
47741;PMS5003;33504;52.066;6.096;2022-09-09T05:31:09;9;9;
47741;PMS5003;33504;52.066;6.096;2022-09-09T05:33:38;11;11;
47741;PMS5003;33504;52.066;6.096;2022-09-09T05:36:06;13;12;
47741;PMS5003;33504;52.066;6.096;2022-09-09T05:38:34;12;10;
47741;PMS5003;33504;52.066;6.096;2022-09-09T05:41:02;8;8;
47741;PMS5003;33504;52.066;6.096;2022-09-09T05:43:30;10;10;
47741;PMS5003;33504;52.066;6.096;2022-09-09T05:45:59;8;8;
47741;PMS5003;33504;52.066;6.096;2022-09-09T05:48:28;8;8;
47741;PMS5003;33504;52.066;6.096;2022-09-09T05:50:55;9;8;
47741;PMS5003;33504;52.066;6.096;2022-09-09T05:53:23;11;10;
47741;PMS5003;33504;52.066;6.096;2022-09-09T05:55:49;8;8;
47741;PMS5003;33504;52.066;6.096;2022-09-09T05:58:17;11;10;
47741;PMS5003;33504;52.066;6.096;2022-09-09T06:00:44;9;9;
47741;PMS5003;33504;52.066;6.096;2022-09-09T06:03:11;13;12;
47741;PMS5003;33504;52.066;6.096;2022-09-09T06:05:38;8;7;
47741;PMS5003;33504;52.066;6.096;2022-09-09T06:08:05;10;9;
47741;PMS5003;33504;52.066;6.096;2022-09-09T06:10:32;12;12;
47741;PMS5003;33504;52.066;6.096;2022-09-09T06:13:00;8;8;
47741;PMS5003;33504;52.066;6.096;2022-09-09T06:15:26;7;7;
47741;PMS5003;33504;52.066;6.096;2022-09-09T06:17:54;9;8;
47741;PMS5003;33504;52.066;6.096;2022-09-09T06:20:21;10;9;
47741;PMS5003;33504;52.066;6.096;2022-09-09T06:22:48;10;10;
47741;PMS5003;33504;52.066;6.096;2022-09-09T06:25:14;10;10;
47741;PMS5003;33504;52.066;6.096;2022-09-09T06:27:41;10;10;
47741;PMS5003;33504;52.066;6.096;2022-09-09T06:30:08;12;11;
47741;PMS5003;33504;52.066;6.096;2022-09-09T06:32:36;9;9;
47741;PMS5003;33504;52.066;6.096;2022-09-09T06:35:03;9;9;
47741;PMS5003;33504;52.066;6.096;2022-09-09T06:37:30;9;9;
47741;PMS5003;33504;52.066;6.096;2022-09-09T06:39:57;6;6;
47741;PMS5003;33504;52.066;6.096;2022-09-09T06:42:24;8;8;
47741;PMS5003;33504;52.066;6.096;2022-09-09T06:44:51;8;8;
47741;PMS5003;33504;52.066;6.096;2022-09-09T06:47:18;10;9;
47741;PMS5003;33504;52.066;6.096;2022-09-09T06:49:44;10;10;
47741;PMS5003;33504;52.066;6.096;2022-09-09T06:52:11;11;10;
47741;PMS5003;33504;52.066;6.096;2022-09-09T06:54:38;10;10;
47741;PMS5003;33504;52.066;6.096;2022-09-09T06:57:05;12;12;
47741;PMS5003;33504;52.066;6.096;2022-09-09T06:59:31;12;12;
47741;PMS5003;33504;52.066;6.096;2022-09-09T07:01:59;8;8;
47741;PMS5003;33504;52.066;6.096;2022-09-09T07:04:26;11;9;
47741;PMS5003;33504;52.066;6.096;2022-09-09T07:06:53;10;10;
47741;PMS5003;33504;52.066;6.096;2022-09-09T07:09:20;8;8;
47741;PMS5003;33504;52.066;6.096;2022-09-09T07:11:48;11;8;
47741;PMS5003;33504;52.066;6.096;2022-09-09T07:14:16;5;5;
47741;PMS5003;33504;52.066;6.096;2022-09-09T07:16:44;6;6;
47741;PMS5003;33504;52.066;6.096;2022-09-09T07:19:12;8;8;
47741;PMS5003;33504;52.066;6.096;2022-09-09T07:21:39;8;7;
47741;PMS5003;33504;52.066;6.096;2022-09-09T07:24:06;10;9;
47741;PMS5003;33504;52.066;6.096;2022-09-09T07:26:34;6;6;
47741;PMS5003;33504;52.066;6.096;2022-09-09T07:29:00;9;9;
47741;PMS5003;33504;52.066;6.096;2022-09-09T07:31:28;6;5;
47741;PMS5003;33504;52.066;6.096;2022-09-09T07:33:57;7;6;
47741;PMS5003;33504;52.066;6.096;2022-09-09T07:36:26;7;5;
47741;PMS5003;33504;52.066;6.096;2022-09-09T07:38:55;8;7;
47741;PMS5003;33504;52.066;6.096;2022-09-09T07:41:24;7;6;
47741;PMS5003;33504;52.066;6.096;2022-09-09T07:43:52;10;10;
47741;PMS5003;33504;52.066;6.096;2022-09-09T07:46:20;11;11;
47741;PMS5003;33504;52.066;6.096;2022-09-09T07:48:49;13;13;
47741;PMS5003;33504;52.066;6.096;2022-09-09T07:51:19;18;18;
47741;PMS5003;33504;52.066;6.096;2022-09-09T07:53:48;19;18;
47741;PMS5003;33504;52.066;6.096;2022-09-09T07:56:18;13;13;
47741;PMS5003;33504;52.066;6.096;2022-09-09T07:58:46;15;14;
47741;PMS5003;33504;52.066;6.096;2022-09-09T08:01:14;13;13;
47741;PMS5003;33504;52.066;6.096;2022-09-09T08:03:43;11;11;
47741;PMS5003;33504;52.066;6.096;2022-09-09T08:06:11;7;7;
47741;PMS5003;33504;52.066;6.096;2022-09-09T08:08:39;8;7;
47741;PMS5003;33504;52.066;6.096;2022-09-09T08:11:08;14;13;
47741;PMS5003;33504;52.066;6.096;2022-09-09T08:13:37;13;12;
47741;PMS5003;33504;52.066;6.096;2022-09-09T08:16:06;9;9;
47741;PMS5003;33504;52.066;6.096;2022-09-09T08:18:34;8;8;
47741;PMS5003;33504;52.066;6.096;2022-09-09T08:21:06;6;6;
47741;PMS5003;33504;52.066;6.096;2022-09-09T08:23:33;9;9;
47741;PMS5003;33504;52.066;6.096;2022-09-09T08:26:05;8;7;
47741;PMS5003;33504;52.066;6.096;2022-09-09T08:28:33;9;7;
47741;PMS5003;33504;52.066;6.096;2022-09-09T08:31:15;7;7;
47741;PMS5003;33504;52.066;6.096;2022-09-09T08:33:44;21;21;
47741;PMS5003;33504;52.066;6.096;2022-09-09T08:36:13;11;11;
47741;PMS5003;33504;52.066;6.096;2022-09-09T08:38:41;15;15;
47741;PMS5003;33504;52.066;6.096;2022-09-09T08:41:15;30;30;
47741;PMS5003;33504;52.066;6.096;2022-09-09T08:44:00;18;17;
47741;PMS5003;33504;52.066;6.096;2022-09-09T08:46:32;23;22;
47741;PMS5003;33504;52.066;6.096;2022-09-09T08:49:06;34;33;
47741;PMS5003;33504;52.066;6.096;2022-09-09T08:51:47;53;52;
47741;PMS5003;33504;52.066;6.096;2022-09-09T08:54:15;21;21;
47741;PMS5003;33504;52.066;6.096;2022-09-09T08:56:42;48;47;
47741;PMS5003;33504;52.066;6.096;2022-09-09T08:59:09;53;51;
47741;PMS5003;33504;52.066;6.096;2022-09-09T09:01:49;75;74;
47741;PMS5003;33504;52.066;6.096;2022-09-09T09:04:29;43;42;
47741;PMS5003;33504;52.066;6.096;2022-09-09T09:07:06;7;7;
47741;PMS5003;33504;52.066;6.096;2022-09-09T09:09:44;6;6;
47741;PMS5003;33504;52.066;6.096;2022-09-09T09:12:22;7;6;
47741;PMS5003;33504;52.066;6.096;2022-09-09T09:14:51;6;5;
47741;PMS5003;33504;52.066;6.096;2022-09-09T09:17:19;7;5;
47741;PMS5003;33504;52.066;6.096;2022-09-09T09:19:50;7;6;
47741;PMS5003;33504;52.066;6.096;2022-09-09T09:22:18;46;46;
47741;PMS5003;33504;52.066;6.096;2022-09-09T09:24:49;7;6;
47741;PMS5003;33504;52.066;6.096;2022-09-09T09:27:21;17;16;
47741;PMS5003;33504;52.066;6.096;2022-09-09T09:29:57;31;31;
47741;PMS5003;33504;52.066;6.096;2022-09-09T09:32:27;77;77;
47741;PMS5003;33504;52.066;6.096;2022-09-09T09:34:57;26;26;
47741;PMS5003;33504;52.066;6.096;2022-09-09T09:37:26;29;29;
47741;PMS5003;33504;52.066;6.096;2022-09-09T09:39:55;48;48;
47741;PMS5003;33504;52.066;6.096;2022-09-09T09:42:33;25;24;
47741;PMS5003;33504;52.066;6.096;2022-09-09T09:45:07;13;13;
47741;PMS5003;33504;52.066;6.096;2022-09-09T09:47:34;7;5;
47741;PMS5003;33504;52.066;6.096;2022-09-09T09:50:01;5;5;
47741;PMS5003;33504;52.066;6.096;2022-09-09T09:52:29;4;3;
47741;PMS5003;33504;52.066;6.096;2022-09-09T09:54:57;5;4;
47741;PMS5003;33504;52.066;6.096;2022-09-09T09:57:26;5;4;
47741;PMS5003;33504;52.066;6.096;2022-09-09T10:00:04;5;3;
47741;PMS5003;33504;52.066;6.096;2022-09-09T10:02:39;8;7;
47741;PMS5003;33504;52.066;6.096;2022-09-09T10:05:12;5;4;
47741;PMS5003;33504;52.066;6.096;2022-09-09T10:07:44;5;4;
47741;PMS5003;33504;52.066;6.096;2022-09-09T10:10:12;5;4;
47741;PMS5003;33504;52.066;6.096;2022-09-09T10:12:47;5;4;
47741;PMS5003;33504;52.066;6.096;2022-09-09T10:15:28;4;4;
47741;PMS5003;33504;52.066;6.096;2022-09-09T10:18:04;6;5;
47741;PMS5003;33504;52.066;6.096;2022-09-09T10:20:43;4;3;
47741;PMS5003;33504;52.066;6.096;2022-09-09T10:23:23;4;3;
47741;PMS5003;33504;52.066;6.096;2022-09-09T10:26:10;5;4;
47741;PMS5003;33504;52.066;6.096;2022-09-09T10:28:54;4;4;
47741;PMS5003;33504;52.066;6.096;2022-09-09T10:31:36;7;5;
47741;PMS5003;33504;52.066;6.096;2022-09-09T10:34:17;3;3;
47741;PMS5003;33504;52.066;6.096;2022-09-09T10:36:52;6;5;
47741;PMS5003;33504;52.066;6.096;2022-09-09T10:39:27;5;4;
47741;PMS5003;33504;52.066;6.096;2022-09-09T10:42:01;3;3;
47741;PMS5003;33504;52.066;6.096;2022-09-09T10:44:36;6;5;
47741;PMS5003;33504;52.066;6.096;2022-09-09T10:47:50;5;5;
47741;PMS5003;33504;52.066;6.096;2022-09-09T10:50:35;9;7;
47741;PMS5003;33504;52.066;6.096;2022-09-09T10:53:16;6;6;
47741;PMS5003;33504;52.066;6.096;2022-09-09T10:55:51;5;5;
47741;PMS5003;33504;52.066;6.096;2022-09-09T10:58:23;6;6;
47741;PMS5003;33504;52.066;6.096;2022-09-09T11:00:58;4;3;
47741;PMS5003;33504;52.066;6.096;2022-09-09T11:03:29;6;6;
47741;PMS5003;33504;52.066;6.096;2022-09-09T11:05:59;12;11;
47741;PMS5003;33504;52.066;6.096;2022-09-09T11:08:30;11;11;
47741;PMS5003;33504;52.066;6.096;2022-09-09T11:11:01;14;14;
47741;PMS5003;33504;52.066;6.096;2022-09-09T11:13:32;5;4;
47741;PMS5003;33504;52.066;6.096;2022-09-09T11:16:11;5;4;
47741;PMS5003;33504;52.066;6.096;2022-09-09T11:18:47;6;5;
47741;PMS5003;33504;52.066;6.096;2022-09-09T11:21:17;4;3;
47741;PMS5003;33504;52.066;6.096;2022-09-09T11:23:49;5;4;
47741;PMS5003;33504;52.066;6.096;2022-09-09T11:26:29;5;4;
47741;PMS5003;33504;52.066;6.096;2022-09-09T11:29:07;6;5;
47741;PMS5003;33504;52.066;6.096;2022-09-09T11:31:51;4;4;
47741;PMS5003;33504;52.066;6.096;2022-09-09T11:34:31;5;4;
47741;PMS5003;33504;52.066;6.096;2022-09-09T11:37:11;4;4;
47741;PMS5003;33504;52.066;6.096;2022-09-09T11:39:57;5;4;
47741;PMS5003;33504;52.066;6.096;2022-09-09T11:42:35;4;4;
47741;PMS5003;33504;52.066;6.096;2022-09-09T11:45:20;4;4;
47741;PMS5003;33504;52.066;6.096;2022-09-09T11:47:52;3;3;
47741;PMS5003;33504;52.066;6.096;2022-09-09T11:50:29;5;5;
47741;PMS5003;33504;52.066;6.096;2022-09-09T11:53:16;6;5;
47741;PMS5003;33504;52.066;6.096;2022-09-09T11:55:46;5;5;
47741;PMS5003;33504;52.066;6.096;2022-09-09T11:58:15;4;4;
47741;PMS5003;33504;52.066;6.096;2022-09-09T12:00:44;7;6;
47741;PMS5003;33504;52.066;6.096;2022-09-09T12:03:31;9;8;
47741;PMS5003;33504;52.066;6.096;2022-09-09T12:06:08;15;12;
47741;PMS5003;33504;52.066;6.096;2022-09-09T12:08:40;16;16;
47741;PMS5003;33504;52.066;6.096;2022-09-09T12:11:09;21;20;
47741;PMS5003;33504;52.066;6.096;2022-09-09T12:13:37;16;16;
47741;PMS5003;33504;52.066;6.096;2022-09-09T12:16:04;15;14;
47741;PMS5003;33504;52.066;6.096;2022-09-09T12:18:32;12;12;
47741;PMS5003;33504;52.066;6.096;2022-09-09T12:21:02;14;14;
47741;PMS5003;33504;52.066;6.096;2022-09-09T12:23:44;16;16;
47741;PMS5003;33504;52.066;6.096;2022-09-09T12:26:20;19;17;
47741;PMS5003;33504;52.066;6.096;2022-09-09T12:29:01;21;20;
47741;PMS5003;33504;52.066;6.096;2022-09-09T12:31:40;10;10;
47741;PMS5003;33504;52.066;6.096;2022-09-09T12:34:11;6;6;
47741;PMS5003;33504;52.066;6.096;2022-09-09T12:36:42;5;4;
47741;PMS5003;33504;52.066;6.096;2022-09-09T12:39:16;5;4;
47741;PMS5003;33504;52.066;6.096;2022-09-09T12:41:52;4;3;
47741;PMS5003;33504;52.066;6.096;2022-09-09T12:44:19;3;3;
47741;PMS5003;33504;52.066;6.096;2022-09-09T12:46:47;4;4;
47741;PMS5003;33504;52.066;6.096;2022-09-09T12:49:24;3;2;
47741;PMS5003;33504;52.066;6.096;2022-09-09T12:51:55;5;4;
47741;PMS5003;33504;52.066;6.096;2022-09-09T12:54:22;3;3;
47741;PMS5003;33504;52.066;6.096;2022-09-09T12:56:50;3;3;
47741;PMS5003;33504;52.066;6.096;2022-09-09T12:59:22;4;3;
47741;PMS5003;33504;52.066;6.096;2022-09-09T13:01:58;5;4;
47741;PMS5003;33504;52.066;6.096;2022-09-09T13:04:25;3;3;
47741;PMS5003;33504;52.066;6.096;2022-09-09T13:06:52;4;4;
47741;PMS5003;33504;52.066;6.096;2022-09-09T13:09:20;4;4;
47741;PMS5003;33504;52.066;6.096;2022-09-09T13:11:48;4;3;
47741;PMS5003;33504;52.066;6.096;2022-09-09T13:14:17;3;3;
47741;PMS5003;33504;52.066;6.096;2022-09-09T13:16:58;4;4;
47741;PMS5003;33504;52.066;6.096;2022-09-09T13:19:27;2;2;
47741;PMS5003;33504;52.066;6.096;2022-09-09T13:21:58;5;5;
47741;PMS5003;33504;52.066;6.096;2022-09-09T13:24:27;3;3;
47741;PMS5003;33504;52.066;6.096;2022-09-09T13:26:56;1;1;
47741;PMS5003;33504;52.066;6.096;2022-09-09T13:29:25;2;2;
47741;PMS5003;33504;52.066;6.096;2022-09-09T13:31:52;4;3;
47741;PMS5003;33504;52.066;6.096;2022-09-09T13:34:26;3;3;
47741;PMS5003;33504;52.066;6.096;2022-09-09T13:36:55;4;3;
47741;PMS5003;33504;52.066;6.096;2022-09-09T13:39:26;4;4;
47741;PMS5003;33504;52.066;6.096;2022-09-09T13:41:54;6;5;
47741;PMS5003;33504;52.066;6.096;2022-09-09T13:44:22;3;3;
47741;PMS5003;33504;52.066;6.096;2022-09-09T13:47:01;5;4;
47741;PMS5003;33504;52.066;6.096;2022-09-09T13:49:30;2;2;
47741;PMS5003;33504;52.066;6.096;2022-09-09T13:52:09;6;3;
47741;PMS5003;33504;52.066;6.096;2022-09-09T13:54:37;5;5;
47741;PMS5003;33504;52.066;6.096;2022-09-09T13:57:04;3;3;
47741;PMS5003;33504;52.066;6.096;2022-09-09T13:59:32;6;5;
47741;PMS5003;33504;52.066;6.096;2022-09-09T14:01:59;7;6;
47741;PMS5003;33504;52.066;6.096;2022-09-09T14:04:26;6;5;
47741;PMS5003;33504;52.066;6.096;2022-09-09T14:06:52;6;5;
47741;PMS5003;33504;52.066;6.096;2022-09-09T14:09:20;4;4;
47741;PMS5003;33504;52.066;6.096;2022-09-09T14:11:47;6;6;
47741;PMS5003;33504;52.066;6.096;2022-09-09T14:14:14;4;4;
47741;PMS5003;33504;52.066;6.096;2022-09-09T14:16:41;7;6;
47741;PMS5003;33504;52.066;6.096;2022-09-09T14:19:09;4;4;
47741;PMS5003;33504;52.066;6.096;2022-09-09T14:21:36;5;4;
47741;PMS5003;33504;52.066;6.096;2022-09-09T14:24:04;4;4;
47741;PMS5003;33504;52.066;6.096;2022-09-09T14:26:31;4;4;
47741;PMS5003;33504;52.066;6.096;2022-09-09T14:28:58;5;4;
47741;PMS5003;33504;52.066;6.096;2022-09-09T14:31:26;3;3;
47741;PMS5003;33504;52.066;6.096;2022-09-09T14:33:53;3;3;
47741;PMS5003;33504;52.066;6.096;2022-09-09T14:36:21;3;3;
47741;PMS5003;33504;52.066;6.096;2022-09-09T14:38:48;5;4;
47741;PMS5003;33504;52.066;6.096;2022-09-09T14:41:16;3;3;
47741;PMS5003;33504;52.066;6.096;2022-09-09T14:43:44;6;4;
47741;PMS5003;33504;52.066;6.096;2022-09-09T14:46:13;7;6;
47741;PMS5003;33504;52.066;6.096;2022-09-09T14:48:42;8;7;
47741;PMS5003;33504;52.066;6.096;2022-09-09T14:51:10;6;6;
47741;PMS5003;33504;52.066;6.096;2022-09-09T14:53:38;6;6;
47741;PMS5003;33504;52.066;6.096;2022-09-09T14:56:07;5;5;
47741;PMS5003;33504;52.066;6.096;2022-09-09T14:58:35;6;6;
47741;PMS5003;33504;52.066;6.096;2022-09-09T15:01:03;5;4;
47741;PMS5003;33504;52.066;6.096;2022-09-09T15:03:31;4;4;
47741;PMS5003;33504;52.066;6.096;2022-09-09T15:05:58;4;4;
47741;PMS5003;33504;52.066;6.096;2022-09-09T15:08:31;4;3;
47741;PMS5003;33504;52.066;6.096;2022-09-09T15:10:59;3;3;
47741;PMS5003;33504;52.066;6.096;2022-09-09T15:13:26;3;2;
47741;PMS5003;33504;52.066;6.096;2022-09-09T15:15:54;4;4;
47741;PMS5003;33504;52.066;6.096;2022-09-09T15:18:21;3;3;
47741;PMS5003;33504;52.066;6.096;2022-09-09T15:20:49;5;5;
47741;PMS5003;33504;52.066;6.096;2022-09-09T15:23:15;5;5;
47741;PMS5003;33504;52.066;6.096;2022-09-09T15:25:52;4;4;
47741;PMS5003;33504;52.066;6.096;2022-09-09T15:28:19;3;3;
47741;PMS5003;33504;52.066;6.096;2022-09-09T15:30:48;6;5;
47741;PMS5003;33504;52.066;6.096;2022-09-09T15:33:15;7;6;
47741;PMS5003;33504;52.066;6.096;2022-09-09T15:35:42;6;6;
47741;PMS5003;33504;52.066;6.096;2022-09-09T15:38:09;7;6;
47741;PMS5003;33504;52.066;6.096;2022-09-09T15:40:37;5;4;
47741;PMS5003;33504;52.066;6.096;2022-09-09T15:43:04;9;9;
47741;PMS5003;33504;52.066;6.096;2022-09-09T15:45:32;6;6;
47741;PMS5003;33504;52.066;6.096;2022-09-09T15:47:59;5;4;
47741;PMS5003;33504;52.066;6.096;2022-09-09T15:50:27;5;5;
47741;PMS5003;33504;52.066;6.096;2022-09-09T15:52:54;5;4;
47741;PMS5003;33504;52.066;6.096;2022-09-09T15:55:21;6;5;
47741;PMS5003;33504;52.066;6.096;2022-09-09T15:57:48;5;5;
47741;PMS5003;33504;52.066;6.096;2022-09-09T16:00:16;5;5;
47741;PMS5003;33504;52.066;6.096;2022-09-09T16:02:43;4;4;
47741;PMS5003;33504;52.066;6.096;2022-09-09T16:05:10;6;5;
47741;PMS5003;33504;52.066;6.096;2022-09-09T16:07:36;5;5;
47741;PMS5003;33504;52.066;6.096;2022-09-09T16:10:04;5;5;
47741;PMS5003;33504;52.066;6.096;2022-09-09T16:12:32;7;5;
47741;PMS5003;33504;52.066;6.096;2022-09-09T16:14:58;4;4;
47741;PMS5003;33504;52.066;6.096;2022-09-09T16:17:25;5;4;
47741;PMS5003;33504;52.066;6.096;2022-09-09T16:19:53;6;6;
47741;PMS5003;33504;52.066;6.096;2022-09-09T16:22:20;5;5;
47741;PMS5003;33504;52.066;6.096;2022-09-09T16:24:47;5;5;
47741;PMS5003;33504;52.066;6.096;2022-09-09T16:27:15;7;7;
47741;PMS5003;33504;52.066;6.096;2022-09-09T16:29:42;6;6;
47741;PMS5003;33504;52.066;6.096;2022-09-09T16:32:09;4;3;
47741;PMS5003;33504;52.066;6.096;2022-09-09T16:34:36;44;42;
47741;PMS5003;33504;52.066;6.096;2022-09-09T16:37:03;3;1;
47741;PMS5003;33504;52.066;6.096;2022-09-09T16:39:30;1;1;
47741;PMS5003;33504;52.066;6.096;2022-09-09T16:41:58;1;1;
47741;PMS5003;33504;52.066;6.096;2022-09-09T16:44:24;1;1;
47741;PMS5003;33504;52.066;6.096;2022-09-09T16:46:51;2;2;
47741;PMS5003;33504;52.066;6.096;2022-09-09T16:49:18;3;1;
47741;PMS5003;33504;52.066;6.096;2022-09-09T16:51:46;1;1;
47741;PMS5003;33504;52.066;6.096;2022-09-09T16:54:14;4;3;
47741;PMS5003;33504;52.066;6.096;2022-09-09T16:56:43;3;3;
47741;PMS5003;33504;52.066;6.096;2022-09-09T16:59:12;4;3;
47741;PMS5003;33504;52.066;6.096;2022-09-09T17:01:41;4;4;